createdAt,value
2019-02-12T00:01:07.561Z,1026.83
2019-02-12T00:02:17.490Z,1026.78
2019-02-12T00:03:27.186Z,1026.83
2019-02-12T00:04:36.875Z,1026.77
2019-02-12T00:05:46.809Z,1026.77
2019-02-12T00:06:56.757Z,1026.89
2019-02-12T00:08:06.709Z,1026.9
2019-02-12T00:09:16.696Z,1026.93
2019-02-12T00:10:26.617Z,1026.88
2019-02-12T00:11:36.539Z,1026.86
2019-02-12T00:12:46.473Z,1026.79
2019-02-12T00:13:56.144Z,1026.78
2019-02-12T00:15:05.825Z,1026.72
2019-02-12T00:16:15.508Z,1026.71
2019-02-12T00:17:25.193Z,1026.71
2019-02-12T00:18:34.621Z,1026.76
2019-02-12T00:19:44.293Z,1026.81
2019-02-12T00:20:54.217Z,1026.78
2019-02-12T00:22:12.076Z,1026.85
2019-02-12T00:23:21.522Z,1026.87
2019-02-12T00:24:31.466Z,1026.81
2019-02-12T00:25:41.142Z,1026.86
2019-02-12T00:26:50.642Z,1026.83
2019-02-12T00:28:00.591Z,1026.81
2019-02-12T00:29:10.262Z,1026.85
2019-02-12T00:30:19.440Z,1026.88
2019-02-12T00:31:28.867Z,1026.85
2019-02-12T00:32:38.577Z,1026.93
2019-02-12T00:33:48.510Z,1026.85
2019-02-12T00:34:58.192Z,1026.95
2019-02-12T00:36:07.887Z,1027
2019-02-12T00:37:17.821Z,1027.03
2019-02-12T00:38:27.812Z,1027
2019-02-12T00:39:37.483Z,1027.04
2019-02-12T00:40:47.163Z,1026.98
2019-02-12T00:41:57.101Z,1026.98
2019-02-12T00:43:06.797Z,1026.99
2019-02-12T00:44:16.726Z,1026.96
2019-02-12T00:45:26.401Z,1026.96
2019-02-12T00:46:36.072Z,1026.96
2019-02-12T00:47:45.503Z,1026.97
2019-02-12T00:48:55.193Z,1026.97
2019-02-12T00:50:04.867Z,1027.04
2019-02-12T00:51:17.674Z,1027.02
2019-02-12T00:52:27.711Z,1027.03
2019-02-12T00:53:36.885Z,1027.05
2019-02-12T00:54:46.560Z,1027.06
2019-02-12T00:55:56.026Z,1027.01
2019-02-12T00:57:05.706Z,1026.98
2019-02-12T00:58:15.133Z,1026.99
2019-02-12T00:59:24.827Z,1026.99
2019-02-12T01:00:34.570Z,1026.99
2019-02-12T01:01:44.277Z,1026.91
2019-02-12T01:02:53.715Z,1026.99
2019-02-12T01:04:03.445Z,1026.96
2019-02-12T01:05:13.141Z,1027.01
2019-02-12T01:06:22.329Z,1027.08
2019-02-12T01:07:32.009Z,1027.09
2019-02-12T01:08:41.716Z,1027.13
2019-02-12T01:09:51.401Z,1027.16
2019-02-12T01:11:01.113Z,1027.11
2019-02-12T01:12:11.146Z,1027.12
2019-02-12T01:13:21.143Z,1027.08
2019-02-12T01:14:30.817Z,1027.1
2019-02-12T01:15:40.507Z,1027.14
2019-02-12T01:16:49.430Z,1027.19
2019-02-12T01:17:59.117Z,1027.13
2019-02-12T01:19:08.789Z,1027.13
2019-02-12T01:20:17.968Z,1027.14
2019-02-12T01:21:27.657Z,1027.14
2019-02-12T01:22:37.104Z,1027.19
2019-02-12T01:23:46.527Z,1027.19
2019-02-12T01:24:56.449Z,1027.23
2019-02-12T01:26:05.881Z,1027.2
2019-02-12T01:27:15.307Z,1027.22
2019-02-12T01:28:25.003Z,1027.35
2019-02-12T01:29:34.691Z,1027.27
2019-02-12T01:30:43.619Z,1027.3
2019-02-12T01:31:53.570Z,1027.34
2019-02-12T01:33:03.517Z,1027.41
2019-02-12T01:34:13.205Z,1027.39
2019-02-12T01:35:22.902Z,1027.41
2019-02-12T01:36:32.339Z,1027.47
2019-02-12T01:37:41.765Z,1027.54
2019-02-12T01:38:51.692Z,1027.53
2019-02-12T01:40:01.393Z,1027.58
2019-02-12T01:41:11.343Z,1027.53
2019-02-12T01:42:20.780Z,1027.51
2019-02-12T01:43:30.740Z,1027.51
2019-02-12T01:44:40.171Z,1027.48
2019-02-12T01:45:50.101Z,1027.46
2019-02-12T01:47:00.050Z,1027.48
2019-02-12T01:48:09.735Z,1027.54
2019-02-12T01:49:19.432Z,1027.51
2019-02-12T01:50:29.140Z,1027.58
2019-02-12T01:51:38.833Z,1027.59
2019-02-12T01:52:48.587Z,1027.63
2019-02-12T01:53:58.027Z,1027.79
2019-02-12T01:55:07.947Z,1027.78
2019-02-12T01:56:17.388Z,1027.78
2019-02-12T01:57:27.333Z,1027.75
2019-02-12T01:58:37.295Z,1027.76
2019-02-12T01:59:46.981Z,1027.82
2019-02-12T02:00:56.423Z,1027.79
2019-02-12T02:02:06.384Z,1027.83
2019-02-12T02:03:16.069Z,1027.92
2019-02-12T02:04:25.506Z,1027.8
2019-02-12T02:05:34.705Z,1027.83
2019-02-12T02:06:44.636Z,1027.88
2019-02-12T02:07:54.324Z,1027.8
2019-02-12T02:09:03.779Z,1027.78
2019-02-12T02:10:13.213Z,1027.78
2019-02-12T02:11:22.917Z,1027.84
2019-02-12T02:12:32.614Z,1027.85
2019-02-12T02:13:42.040Z,1027.78
2019-02-12T02:14:51.718Z,1027.76
2019-02-12T02:16:01.147Z,1027.83
2019-02-12T02:17:11.076Z,1027.84
2019-02-12T02:18:21.001Z,1028.01
2019-02-12T02:19:30.680Z,1027.88
2019-02-12T02:20:40.608Z,1027.86
2019-02-12T02:21:50.303Z,1027.86
2019-02-12T02:23:00.263Z,1027.97
2019-02-12T02:24:09.686Z,1027.83
2019-02-12T02:25:19.626Z,1027.83
2019-02-12T02:26:29.302Z,1027.86
2019-02-12T02:27:38.974Z,1027.85
2019-02-12T02:28:48.660Z,1027.85
2019-02-12T02:29:58.345Z,1027.86
2019-02-12T02:31:08.386Z,1027.9
2019-02-12T02:32:17.828Z,1027.9
2019-02-12T02:33:27.575Z,1027.95
2019-02-12T02:34:37.559Z,1027.96
2019-02-12T02:35:46.751Z,1027.92
2019-02-12T02:36:56.729Z,1027.92
2019-02-12T02:38:06.421Z,1027.92
2019-02-12T02:39:16.354Z,1027.89
2019-02-12T02:40:26.046Z,1027.81
2019-02-12T02:41:35.975Z,1027.8
2019-02-12T02:42:45.688Z,1027.72
2019-02-12T02:43:55.174Z,1027.72
2019-02-12T02:45:05.130Z,1027.71
2019-02-12T02:46:14.564Z,1027.77
2019-02-12T02:47:24.542Z,1027.78
2019-02-12T02:48:34.540Z,1027.77
2019-02-12T02:49:44.471Z,1027.76
2019-02-12T02:50:54.172Z,1027.75
2019-02-12T02:52:04.110Z,1027.72
2019-02-12T02:53:14.040Z,1027.71
2019-02-12T02:54:23.993Z,1027.71
2019-02-12T02:55:33.925Z,1027.66
2019-02-12T02:56:43.627Z,1027.63
2019-02-12T02:57:53.352Z,1027.67
2019-02-12T02:59:03.275Z,1027.64
2019-02-12T03:00:13.221Z,1027.63
2019-02-12T03:01:23.234Z,1027.58
2019-02-12T03:02:32.921Z,1027.61
2019-02-12T03:03:42.862Z,1027.64
2019-02-12T03:04:52.551Z,1027.65
2019-02-12T03:06:02.024Z,1027.62
2019-02-12T03:07:11.706Z,1027.66
2019-02-12T03:08:21.646Z,1027.62
2019-02-12T03:09:30.829Z,1027.68
2019-02-12T03:10:40.768Z,1027.67
2019-02-12T03:11:52.792Z,1027.69
2019-02-12T03:13:02.735Z,1027.68
2019-02-12T03:14:12.686Z,1027.74
2019-02-12T03:15:22.365Z,1027.73
2019-02-12T03:16:32.306Z,1027.77
2019-02-12T03:17:41.990Z,1027.79
2019-02-12T03:18:51.459Z,1027.84
2019-02-12T03:20:00.896Z,1027.82
2019-02-12T03:21:10.603Z,1027.86
2019-02-12T03:22:20.552Z,1027.89
2019-02-12T03:23:30.491Z,1027.89
2019-02-12T03:24:40.181Z,1027.93
2019-02-12T03:25:49.884Z,1027.94
2019-02-12T03:26:59.809Z,1027.91
2019-02-12T03:28:09.505Z,1027.96
2019-02-12T03:29:19.479Z,1027.91
2019-02-12T03:30:29.442Z,1027.97
2019-02-12T03:31:39.466Z,1028.04
2019-02-12T03:32:49.473Z,1028.02
2019-02-12T03:33:59.197Z,1028.11
2019-02-12T03:35:09.157Z,1028.09
2019-02-12T03:36:18.966Z,1028.09
2019-02-12T03:37:28.650Z,1028.12
2019-02-12T03:38:38.337Z,1028.18
2019-02-12T03:39:47.777Z,1028.18
2019-02-12T03:40:57.462Z,1028.15
2019-02-12T03:42:07.204Z,1028.13
2019-02-12T03:43:16.899Z,1028.08
2019-02-12T03:44:26.338Z,1028.09
2019-02-12T03:45:36.272Z,1028.08
2019-02-12T03:46:45.729Z,1028.05
2019-02-12T03:47:55.652Z,1028.05
2019-02-12T03:49:05.630Z,1028.03
2019-02-12T03:50:15.606Z,1028.06
2019-02-12T03:51:25.285Z,1028.09
2019-02-12T03:52:35.010Z,1028.16
2019-02-12T03:53:44.972Z,1028.12
2019-02-12T03:54:54.655Z,1028.06
2019-02-12T03:56:04.574Z,1028.1
2019-02-12T03:57:14.250Z,1028.13
2019-02-12T03:58:24.183Z,1028.07
2019-02-12T03:59:34.107Z,1028.05
2019-02-12T04:00:43.780Z,1028.05
2019-02-12T04:01:53.730Z,1028.02
2019-02-12T04:03:03.667Z,1028.01
2019-02-12T04:04:13.111Z,1028.05
2019-02-12T04:05:22.802Z,1027.99
2019-02-12T04:06:32.776Z,1028.08
2019-02-12T04:07:42.230Z,1028.13
2019-02-12T04:08:52.181Z,1028.11
2019-02-12T04:10:01.904Z,1028.18
2019-02-12T04:11:11.859Z,1028.17
2019-02-12T04:12:21.547Z,1028.17
2019-02-12T04:13:31.225Z,1028.22
2019-02-12T04:14:40.912Z,1028.19
2019-02-12T04:15:50.846Z,1028.24
2019-02-12T04:17:00.792Z,1028.17
2019-02-12T04:18:09.974Z,1028.21
2019-02-12T04:19:19.674Z,1028.19
2019-02-12T04:20:29.366Z,1028.18
2019-02-12T04:21:38.800Z,1028.19
2019-02-12T04:22:48.746Z,1028.22
2019-02-12T04:23:58.438Z,1028.34
2019-02-12T04:25:08.418Z,1028.25
2019-02-12T04:26:18.340Z,1028.33
2019-02-12T04:27:27.802Z,1028.34
2019-02-12T04:28:37.492Z,1028.29
2019-02-12T04:29:47.192Z,1028.17
2019-02-12T04:30:56.866Z,1028.1
2019-02-12T04:32:06.824Z,1028.2
2019-02-12T04:33:16.791Z,1028.14
2019-02-12T04:34:26.228Z,1028.28
2019-02-12T04:35:36.187Z,1028.3
2019-02-12T04:36:45.631Z,1028.21
2019-02-12T04:37:55.319Z,1028.2
2019-02-12T04:39:05.016Z,1028.27
2019-02-12T04:40:14.949Z,1028.35
2019-02-12T04:41:24.639Z,1028.25
2019-02-12T04:42:34.380Z,1028.16
2019-02-12T04:43:44.318Z,1028.2
2019-02-12T04:44:54.349Z,1028.21
2019-02-12T04:46:04.079Z,1028.29
2019-02-12T04:47:14.002Z,1028.22
2019-02-12T04:48:23.434Z,1028.25
2019-02-12T04:49:33.114Z,1028.23
2019-02-12T04:50:43.064Z,1028.28
2019-02-12T04:51:52.755Z,1028.23
2019-02-12T04:53:02.440Z,1028.31
2019-02-12T04:54:12.137Z,1028.31
2019-02-12T04:55:21.583Z,1028.28
2019-02-12T04:56:31.265Z,1028.24
2019-02-12T04:57:41.227Z,1028.26
2019-02-12T04:58:51.152Z,1028.22
2019-02-12T05:00:00.855Z,1028.24
2019-02-12T05:01:10.809Z,1028.35
2019-02-12T05:02:20.748Z,1028.33
2019-02-12T05:03:30.683Z,1028.33
2019-02-12T05:04:40.381Z,1028.32
2019-02-12T05:05:50.304Z,1028.27
2019-02-12T05:07:00.246Z,1028.27
2019-02-12T05:08:10.249Z,1028.37
2019-02-12T05:09:19.931Z,1028.32
2019-02-12T05:10:29.134Z,1028.33
2019-02-12T05:11:39.061Z,1028.4
2019-02-12T05:12:49.019Z,1028.41
2019-02-12T05:13:58.944Z,1028.39
2019-02-12T05:15:08.891Z,1028.49
2019-02-12T05:16:18.586Z,1028.48
2019-02-12T05:17:28.274Z,1028.53
2019-02-12T05:18:37.984Z,1028.52
2019-02-12T05:19:47.415Z,1028.58
2019-02-12T05:20:57.341Z,1028.54
2019-02-12T05:22:07.057Z,1028.57
2019-02-12T05:23:16.239Z,1028.56
2019-02-12T05:24:25.929Z,1028.55
2019-02-12T05:25:35.607Z,1028.57
2019-02-12T05:26:45.339Z,1028.61
2019-02-12T05:27:55.078Z,1028.63
2019-02-12T05:29:04.821Z,1028.63
2019-02-12T05:30:14.265Z,1028.65
2019-02-12T05:31:23.982Z,1028.61
2019-02-12T05:32:33.927Z,1028.61
2019-02-12T05:33:43.613Z,1028.6
2019-02-12T05:34:53.313Z,1028.62
2019-02-12T05:36:03.560Z,1028.61
2019-02-12T05:37:13.502Z,1028.67
2019-02-12T05:38:22.935Z,1028.66
2019-02-12T05:39:32.418Z,1028.71
2019-02-12T05:40:42.099Z,1028.76
2019-02-12T05:41:51.311Z,1028.77
2019-02-12T05:43:01.251Z,1028.74
2019-02-12T05:44:10.934Z,1028.91
2019-02-12T05:45:20.888Z,1028.76
2019-02-12T05:46:30.830Z,1028.78
2019-02-12T05:47:40.015Z,1028.77
2019-02-12T05:48:49.732Z,1028.79
2019-02-12T05:49:59.661Z,1028.83
2019-02-12T05:51:09.369Z,1028.82
2019-02-12T05:52:19.337Z,1028.83
2019-02-12T05:53:29.272Z,1028.88
2019-02-12T05:54:39.231Z,1028.89
2019-02-12T05:55:48.930Z,1028.95
2019-02-12T05:56:58.644Z,1028.87
2019-02-12T05:58:08.375Z,1028.89
2019-02-12T05:59:18.071Z,1028.89
2019-02-12T06:00:27.518Z,1028.92
2019-02-12T06:01:37.457Z,1028.89
2019-02-12T06:02:47.398Z,1028.9
2019-02-12T06:03:57.469Z,1028.95
2019-02-12T06:05:07.408Z,1028.92
2019-02-12T06:06:17.409Z,1028.98
2019-02-12T06:07:26.876Z,1028.95
2019-02-12T06:08:36.571Z,1028.99
2019-02-12T06:09:46.535Z,1028.98
2019-02-12T06:10:56.251Z,1028.99
2019-02-12T06:12:05.929Z,1028.97
2019-02-12T06:13:15.418Z,1029
2019-02-12T06:14:24.852Z,1029.03
2019-02-12T06:15:34.813Z,1029.09
2019-02-12T06:16:44.750Z,1029.12
2019-02-12T06:17:54.459Z,1029.07
2019-02-12T06:19:03.640Z,1029.05
2019-02-12T06:20:14.504Z,1029.11
2019-02-12T06:21:24.442Z,1029.08
2019-02-12T06:22:34.137Z,1029.09
2019-02-12T06:23:44.101Z,1029.12
2019-02-12T06:24:53.853Z,1029.16
2019-02-12T06:26:03.787Z,1029.18
2019-02-12T06:27:13.758Z,1029.21
2019-02-12T06:28:23.454Z,1029.17
2019-02-12T06:29:32.905Z,1029.19
2019-02-12T06:30:43.895Z,1029.2
2019-02-12T06:31:54.058Z,1029.22
2019-02-12T06:33:07.416Z,1029.15
2019-02-12T06:34:17.760Z,1029.2
2019-02-12T06:35:27.455Z,1029.15
2019-02-12T06:36:36.889Z,1029.16
2019-02-12T06:37:46.602Z,1029.2
2019-02-12T06:38:56.560Z,1029.17
2019-02-12T06:40:06.522Z,1029.21
2019-02-12T06:41:16.464Z,1029.21
2019-02-12T06:42:26.426Z,1029.22
2019-02-12T06:43:36.366Z,1029.23
2019-02-12T06:44:46.048Z,1029.2
2019-02-12T06:45:55.745Z,1029.24
2019-02-12T06:47:05.448Z,1029.24
2019-02-12T06:48:15.403Z,1029.29
2019-02-12T06:49:25.089Z,1029.28
2019-02-12T06:50:34.520Z,1029.27
2019-02-12T06:51:44.454Z,1029.31
2019-02-12T06:52:54.401Z,1029.3
2019-02-12T06:54:12.684Z,1029.4
2019-02-12T06:55:22.621Z,1029.34
2019-02-12T06:56:32.552Z,1029.36
2019-02-12T06:57:42.524Z,1029.37
2019-02-12T06:58:52.206Z,1029.34
2019-02-12T07:00:02.192Z,1029.38
2019-02-12T07:01:11.693Z,1029.39
2019-02-12T07:02:21.671Z,1029.44
2019-02-12T07:03:31.719Z,1029.46
2019-02-12T07:04:41.405Z,1029.47
2019-02-12T07:05:50.838Z,1029.44
2019-02-12T07:07:00.534Z,1029.5
2019-02-12T07:08:10.470Z,1029.52
2019-02-12T07:09:19.901Z,1029.47
2019-02-12T07:10:29.594Z,1029.53
2019-02-12T07:11:39.270Z,1029.54
2019-02-12T07:12:49.221Z,1029.55
2019-02-12T07:13:59.159Z,1029.56
2019-02-12T07:15:09.103Z,1029.56
2019-02-12T07:16:19.056Z,1029.66
2019-02-12T07:17:29.042Z,1029.67
2019-02-12T07:18:38.473Z,1029.7
2019-02-12T07:19:48.398Z,1029.74
2019-02-12T07:20:58.072Z,1029.74
2019-02-12T07:22:07.758Z,1029.81
2019-02-12T07:23:21.284Z,1029.75
2019-02-12T07:24:31.241Z,1029.82
2019-02-12T07:25:41.195Z,1029.79
2019-02-12T07:26:51.144Z,1029.85
2019-02-12T07:28:01.126Z,1029.85
2019-02-12T07:29:10.813Z,1029.87
2019-02-12T07:30:20.822Z,1029.94
2019-02-12T07:31:30.256Z,1029.92
2019-02-12T07:32:42.277Z,1029.92
2019-02-12T07:33:51.956Z,1029.93
2019-02-12T07:35:01.676Z,1030
2019-02-12T07:36:11.388Z,1030
2019-02-12T07:37:21.348Z,1030.02
2019-02-12T07:38:31.281Z,1030
2019-02-12T07:39:41.213Z,1029.97
2019-02-12T07:40:50.889Z,1029.95
2019-02-12T07:42:00.830Z,1030.04
2019-02-12T07:43:10.284Z,1030.03
2019-02-12T07:44:20.217Z,1030.05
2019-02-12T07:45:29.899Z,1030.06
2019-02-12T07:46:39.584Z,1030.05
2019-02-12T07:47:49.509Z,1030.13
2019-02-12T07:48:59.435Z,1030.09
2019-02-12T07:50:08.925Z,1030.16
2019-02-12T07:51:18.844Z,1030.13
2019-02-12T07:52:28.548Z,1030.15
2019-02-12T07:53:38.358Z,1030.23
2019-02-12T07:54:48.304Z,1030.2
2019-02-12T07:55:58.010Z,1030.21
2019-02-12T07:57:07.703Z,1030.25
2019-02-12T07:58:17.397Z,1030.27
2019-02-12T07:59:26.577Z,1030.29
2019-02-12T08:00:36.530Z,1030.28
2019-02-12T08:01:46.220Z,1030.29
2019-02-12T08:02:56.215Z,1030.38
2019-02-12T08:04:05.918Z,1030.34
2019-02-12T08:05:15.617Z,1030.38
2019-02-12T08:06:25.562Z,1030.42
2019-02-12T08:07:35.517Z,1030.41
2019-02-12T08:08:45.437Z,1030.43
2019-02-12T08:09:55.118Z,1030.44
2019-02-12T08:11:05.085Z,1030.45
2019-02-12T08:12:15.044Z,1030.53
2019-02-12T08:13:25.001Z,1030.58
2019-02-12T08:14:34.685Z,1030.62
2019-02-12T08:15:44.399Z,1030.63
2019-02-12T08:16:54.080Z,1030.65
2019-02-12T08:18:04.083Z,1030.71
2019-02-12T08:19:13.788Z,1030.67
2019-02-12T08:20:23.734Z,1030.77
2019-02-12T08:21:33.427Z,1030.74
2019-02-12T08:22:43.357Z,1030.73
2019-02-12T08:23:52.784Z,1030.75
2019-02-12T08:25:02.746Z,1030.81
2019-02-12T08:26:12.684Z,1030.79
2019-02-12T08:27:22.364Z,1030.82
2019-02-12T08:28:34.181Z,1030.82
2019-02-12T08:29:43.870Z,1030.81
2019-02-12T08:30:53.562Z,1030.81
2019-02-12T08:32:03.548Z,1030.82
2019-02-12T08:33:12.978Z,1030.84
2019-02-12T08:34:22.657Z,1030.86
2019-02-12T08:35:32.341Z,1030.78
2019-02-12T08:36:41.612Z,1030.85
2019-02-12T08:37:51.065Z,1030.87
2019-02-12T08:39:01.028Z,1030.87
2019-02-12T08:40:10.755Z,1030.84
2019-02-12T08:41:20.718Z,1030.87
2019-02-12T08:42:30.678Z,1030.89
2019-02-12T08:43:42.345Z,1030.91
2019-02-12T08:44:52.720Z,1030.89
2019-02-12T08:46:02.487Z,1030.91
2019-02-12T08:47:12.440Z,1030.96
2019-02-12T08:48:22.149Z,1030.95
2019-02-12T08:49:31.596Z,1030.89
2019-02-12T08:50:41.022Z,1030.86
2019-02-12T08:51:49.959Z,1030.91
2019-02-12T08:52:59.633Z,1030.94
2019-02-12T08:54:09.069Z,1030.96
2019-02-12T08:55:18.507Z,1031.01
2019-02-12T08:56:28.264Z,1030.94
2019-02-12T08:57:38.207Z,1031.01
2019-02-12T08:58:47.899Z,1030.97
2019-02-12T08:59:57.844Z,1031
2019-02-12T09:01:09.211Z,1031.01
2019-02-12T09:02:18.667Z,1031.02
2019-02-12T09:03:28.596Z,1031
2019-02-12T09:04:38.351Z,1031
2019-02-12T09:05:48.316Z,1030.99
2019-02-12T09:06:58.007Z,1031
2019-02-12T09:08:07.449Z,1031.03
2019-02-12T09:09:17.418Z,1031.04
2019-02-12T09:10:27.366Z,1031.04
2019-02-12T09:11:37.059Z,1031.03
2019-02-12T09:12:46.739Z,1031.06
2019-02-12T09:13:56.458Z,1031.11
2019-02-12T09:15:06.157Z,1031.1
2019-02-12T09:16:16.102Z,1031.13
2019-02-12T09:17:25.831Z,1031.12
2019-02-12T09:18:35.784Z,1031.12
2019-02-12T09:19:45.223Z,1031.19
2019-02-12T09:20:54.926Z,1031.15
2019-02-12T09:22:04.367Z,1031.21
2019-02-12T09:23:14.304Z,1031.22
2019-02-12T09:24:24.244Z,1031.21
2019-02-12T09:25:34.206Z,1031.18
2019-02-12T09:26:43.651Z,1031.21
2019-02-12T09:27:53.325Z,1031.23
2019-02-12T09:29:03.303Z,1031.24
2019-02-12T09:30:13.002Z,1031.27
2019-02-12T09:31:22.716Z,1031.28
2019-02-12T09:32:32.149Z,1031.29
2019-02-12T09:33:41.590Z,1031.2
2019-02-12T09:34:51.279Z,1031.28
2019-02-12T09:36:00.977Z,1031.26
2019-02-12T09:37:10.720Z,1031.26
2019-02-12T09:38:20.160Z,1031.25
2019-02-12T09:39:29.604Z,1031.28
2019-02-12T09:40:39.542Z,1031.26
2019-02-12T09:41:49.229Z,1031.25
2019-02-12T09:42:59.168Z,1031.28
2019-02-12T09:44:08.857Z,1031.28
2019-02-12T09:45:18.296Z,1031.29
2019-02-12T09:46:28.282Z,1031.33
2019-02-12T09:47:38.239Z,1031.26
2019-02-12T09:48:48.191Z,1031.28
2019-02-12T09:50:00.030Z,1031.27
2019-02-12T09:51:09.989Z,1031.25
2019-02-12T09:52:19.937Z,1031.35
2019-02-12T09:53:29.374Z,1031.36
2019-02-12T09:54:39.301Z,1031.36
2019-02-12T09:55:49.034Z,1031.41
2019-02-12T09:56:59.015Z,1031.44
2019-02-12T09:58:08.989Z,1031.45
2019-02-12T09:59:18.674Z,1031.48
2019-02-12T10:00:28.369Z,1031.5
2019-02-12T10:01:38.110Z,1031.53
2019-02-12T10:02:48.103Z,1031.52
2019-02-12T10:03:57.791Z,1031.55
2019-02-12T10:05:07.736Z,1031.52
2019-02-12T10:06:21.668Z,1031.57
2019-02-12T10:07:32.049Z,1031.62
2019-02-12T10:08:42.522Z,1031.64
2019-02-12T10:09:52.199Z,1031.62
2019-02-12T10:11:01.893Z,1031.61
2019-02-12T10:12:11.846Z,1031.61
2019-02-12T10:13:21.829Z,1031.66
2019-02-12T10:14:31.767Z,1031.72
2019-02-12T10:15:41.207Z,1031.67
2019-02-12T10:16:50.905Z,1031.66
2019-02-12T10:18:00.604Z,1031.68
2019-02-12T10:19:10.600Z,1031.68
2019-02-12T10:20:20.046Z,1031.66
2019-02-12T10:21:29.733Z,1031.75
2019-02-12T10:22:39.419Z,1031.71
2019-02-12T10:23:49.350Z,1031.8
2019-02-12T10:24:59.048Z,1031.75
2019-02-12T10:26:08.496Z,1031.76
2019-02-12T10:27:18.176Z,1031.79
2019-02-12T10:28:28.119Z,1031.82
2019-02-12T10:29:37.799Z,1031.8
2019-02-12T10:30:47.236Z,1031.8
2019-02-12T10:31:57.178Z,1031.77
2019-02-12T10:33:16.096Z,1031.78
2019-02-12T10:34:26.053Z,1031.75
2019-02-12T10:35:35.765Z,1031.73
2019-02-12T10:36:45.443Z,1031.82
2019-02-12T10:37:55.121Z,1031.81
2019-02-12T10:39:05.066Z,1031.72
2019-02-12T10:40:14.754Z,1031.74
2019-02-12T10:41:24.438Z,1031.71
2019-02-12T10:42:33.698Z,1031.73
2019-02-12T10:43:43.633Z,1031.78
2019-02-12T10:44:53.336Z,1031.76
2019-02-12T10:46:03.270Z,1031.73
2019-02-12T10:47:12.723Z,1031.76
2019-02-12T10:48:23.810Z,1031.77
2019-02-12T10:49:33.496Z,1031.81
2019-02-12T10:50:43.425Z,1031.78
2019-02-12T10:51:52.876Z,1031.67
2019-02-12T10:53:02.555Z,1031.73
2019-02-12T10:54:13.984Z,1031.68
2019-02-12T10:55:30.750Z,1031.7
2019-02-12T10:56:40.747Z,1031.71
2019-02-12T10:57:50.206Z,1031.72
2019-02-12T10:58:59.905Z,1031.71
2019-02-12T11:00:09.888Z,1031.7
2019-02-12T11:01:19.572Z,1031.78
2019-02-12T11:02:29.255Z,1031.76
2019-02-12T11:03:38.697Z,1031.72
2019-02-12T11:04:48.385Z,1031.79
2019-02-12T11:05:58.319Z,1031.73
2019-02-12T11:07:08.315Z,1031.75
2019-02-12T11:08:18.246Z,1031.76
2019-02-12T11:09:28.171Z,1031.66
2019-02-12T11:10:38.098Z,1031.67
2019-02-12T11:11:48.055Z,1031.64
2019-02-12T11:12:57.750Z,1031.61
2019-02-12T11:14:07.676Z,1031.68
2019-02-12T11:15:17.100Z,1031.73
2019-02-12T11:16:27.038Z,1031.72
2019-02-12T11:17:36.979Z,1031.77
2019-02-12T11:18:46.656Z,1031.74
2019-02-12T11:19:56.341Z,1031.76
2019-02-12T11:21:11.472Z,1031.73
2019-02-12T11:22:21.989Z,1031.8
2019-02-12T11:23:31.414Z,1031.7
2019-02-12T11:24:40.606Z,1031.7
2019-02-12T11:25:50.532Z,1031.65
2019-02-12T11:26:59.962Z,1031.78
2019-02-12T11:28:09.655Z,1031.69
2019-02-12T11:29:19.344Z,1031.68
2019-02-12T11:30:30.935Z,1031.68
2019-02-12T11:31:40.633Z,1031.61
2019-02-12T11:32:50.571Z,1031.57
2019-02-12T11:34:00.264Z,1031.62
2019-02-12T11:35:10.203Z,1031.63
2019-02-12T11:36:19.895Z,1031.61
2019-02-12T11:37:29.844Z,1031.62
2019-02-12T11:38:39.269Z,1031.64
2019-02-12T11:39:48.951Z,1031.67
2019-02-12T11:40:58.887Z,1031.57
2019-02-12T11:42:08.604Z,1031.58
2019-02-12T11:43:18.292Z,1031.53
2019-02-12T11:44:27.473Z,1031.55
2019-02-12T11:45:36.649Z,1031.55
2019-02-12T11:46:46.083Z,1031.65
2019-02-12T11:47:55.515Z,1031.58
2019-02-12T11:49:05.206Z,1031.5
2019-02-12T11:50:14.630Z,1031.54
2019-02-12T11:51:23.818Z,1031.51
2019-02-12T11:52:33.497Z,1031.49
2019-02-12T11:53:43.449Z,1031.53
2019-02-12T11:54:53.135Z,1031.49
2019-02-12T11:56:02.563Z,1031.51
2019-02-12T11:57:12.245Z,1031.48
2019-02-12T11:58:23.180Z,1031.53
2019-02-12T11:59:32.880Z,1031.4
2019-02-12T12:00:42.576Z,1031.39
2019-02-12T12:01:52.267Z,1031.41
2019-02-12T12:03:01.939Z,1031.42
2019-02-12T12:04:11.633Z,1031.41
2019-02-12T12:05:21.570Z,1031.39
2019-02-12T12:06:31.038Z,1031.37
2019-02-12T12:07:41.014Z,1031.44
2019-02-12T12:08:50.697Z,1031.38
2019-02-12T12:10:00.132Z,1031.36
2019-02-12T12:11:10.023Z,1031.39
2019-02-12T12:12:19.958Z,1031.43
2019-02-12T12:13:29.646Z,1031.42
2019-02-12T12:14:39.075Z,1031.43
2019-02-12T12:15:48.823Z,1031.45
2019-02-12T12:16:58.509Z,1031.43
2019-02-12T12:18:08.190Z,1031.48
2019-02-12T12:19:17.877Z,1031.49
2019-02-12T12:20:27.812Z,1031.5
2019-02-12T12:21:37.520Z,1031.51
2019-02-12T12:22:48.402Z,1031.49
2019-02-12T12:23:58.096Z,1031.52
2019-02-12T12:25:08.026Z,1031.52
2019-02-12T12:26:17.735Z,1031.57
2019-02-12T12:27:27.682Z,1031.54
2019-02-12T12:28:37.176Z,1031.56
2019-02-12T12:29:48.362Z,1031.56
2019-02-12T12:30:57.798Z,1031.61
2019-02-12T12:32:07.479Z,1031.57
2019-02-12T12:33:16.658Z,1031.62
2019-02-12T12:34:26.098Z,1031.63
2019-02-12T12:35:36.043Z,1031.62
2019-02-12T12:36:45.981Z,1031.63
2019-02-12T12:37:55.653Z,1031.62
2019-02-12T12:39:05.089Z,1031.66
2019-02-12T12:40:15.025Z,1031.56
2019-02-12T12:41:24.474Z,1031.6
2019-02-12T12:42:34.407Z,1031.65
2019-02-12T12:43:44.087Z,1031.65
2019-02-12T12:44:53.547Z,1031.63
2019-02-12T12:46:03.232Z,1031.7
2019-02-12T12:47:13.065Z,1031.65
2019-02-12T12:48:22.847Z,1031.65
2019-02-12T12:49:32.565Z,1031.73
2019-02-12T12:50:42.265Z,1031.79
2019-02-12T12:51:51.721Z,1031.72
2019-02-12T12:53:00.927Z,1031.67
2019-02-12T12:54:10.604Z,1031.71
2019-02-12T12:55:20.309Z,1031.73
2019-02-12T12:56:30.669Z,1031.71
2019-02-12T12:57:42.116Z,1031.65
2019-02-12T12:58:51.485Z,1031.66
2019-02-12T13:00:00.920Z,1031.69
2019-02-12T13:01:10.631Z,1031.7
2019-02-12T13:02:20.319Z,1031.71
2019-02-12T13:03:29.995Z,1031.72
2019-02-12T13:04:39.697Z,1031.74
2019-02-12T13:05:48.875Z,1031.76
2019-02-12T13:06:58.072Z,1031.76
2019-02-12T13:08:08.006Z,1031.76
2019-02-12T13:09:17.186Z,1031.76
2019-02-12T13:10:26.889Z,1031.73
2019-02-12T13:11:36.073Z,1031.73
2019-02-12T13:12:45.265Z,1031.73
2019-02-12T13:13:54.958Z,1031.76
2019-02-12T13:15:04.399Z,1031.75
2019-02-12T13:16:14.078Z,1031.72
2019-02-12T13:17:23.768Z,1031.74
2019-02-12T13:18:33.712Z,1031.68
2019-02-12T13:19:43.705Z,1031.73
2019-02-12T13:20:54.442Z,1031.71
2019-02-12T13:22:04.189Z,1031.7
2019-02-12T13:23:13.370Z,1031.65
2019-02-12T13:24:22.817Z,1031.68
2019-02-12T13:25:32.008Z,1031.71
2019-02-12T13:26:41.696Z,1031.69
2019-02-12T13:27:51.641Z,1031.76
2019-02-12T13:29:00.824Z,1031.71
2019-02-12T13:30:10.506Z,1031.7
2019-02-12T13:31:20.186Z,1031.71
2019-02-12T13:32:29.621Z,1031.69
2019-02-12T13:33:39.059Z,1031.64
2019-02-12T13:34:48.741Z,1031.66
2019-02-12T13:35:58.691Z,1031.64
2019-02-12T13:37:08.376Z,1031.68
2019-02-12T13:38:17.804Z,1031.66
2019-02-12T13:39:27.746Z,1031.68
2019-02-12T13:40:37.432Z,1031.71
2019-02-12T13:41:47.141Z,1031.64
2019-02-12T13:42:56.836Z,1031.7
2019-02-12T13:44:06.270Z,1031.69
2019-02-12T13:45:15.953Z,1031.66
2019-02-12T13:46:25.893Z,1031.68
2019-02-12T13:47:35.817Z,1031.62
2019-02-12T13:48:44.745Z,1031.57
2019-02-12T13:49:54.690Z,1031.6
2019-02-12T13:51:04.548Z,1031.52
2019-02-12T13:52:14.235Z,1031.57
2019-02-12T13:53:23.662Z,1031.56
2019-02-12T13:54:33.344Z,1031.55
2019-02-12T13:55:43.024Z,1031.56
2019-02-12T13:56:52.489Z,1031.58
2019-02-12T13:58:02.420Z,1031.55
2019-02-12T13:59:12.102Z,1031.53
2019-02-12T14:00:22.046Z,1031.53
2019-02-12T14:01:31.730Z,1031.46
2019-02-12T14:02:41.672Z,1031.41
2019-02-12T14:03:51.414Z,1031.48
2019-02-12T14:05:01.190Z,1031.46
2019-02-12T14:06:11.003Z,1031.41
2019-02-12T14:07:20.585Z,1031.43
2019-02-12T14:08:30.538Z,1031.46